Time;durP1;ratioP1;P1;durP2;ratioP2;P2;SDS_P1;SDS_P2;PMS_P1;PMS_P2;Temp;Humidity;BMP_temperature;BMP_pressure;BME280_temperature;BME280_humidity;BME280_pressure;Samples;Min_cycle;Max_cycle;Signal;HPM_P1;HPM_P2
2023/08/19 00:00:13;;;;;;;10.35;6.85;;;;;;;29.88;51.54;100927.97;5054893;28;20040;-68
2023/08/19 00:02:40;;;;;;;11.45;7.78;;;;;;;29.84;51.40;100930.41;5037456;28;20031;-67
2023/08/19 00:05:07;;;;;;;11.50;7.82;;;;;;;29.80;51.30;100920.09;5036841;28;20116;-66
2023/08/19 00:07:32;;;;;;;10.85;7.55;;;;;;;29.76;50.98;100921.69;5054826;28;20044;-66
2023/08/19 00:09:57;;;;;;;10.90;8.05;;;;;;;29.76;51.25;100922.50;5054894;28;20025;-66
2023/08/19 00:12:23;;;;;;;14.68;9.35;;;;;;;29.74;51.80;100919.16;5054646;28;20495;-66
2023/08/19 00:14:49;;;;;;;21.08;9.23;;;;;;;29.70;51.83;100919.94;5053350;28;20021;-66
2023/08/19 00:17:16;;;;;;;13.32;8.07;;;;;;;29.69;51.79;100915.47;5053337;28;20037;-66
2023/08/19 00:19:41;;;;;;;10.50;7.43;;;;;;;29.70;51.31;100922.69;5054691;28;20075;-66
2023/08/19 00:22:07;;;;;;;12.00;7.97;;;;;;;29.67;51.58;100917.66;5053297;28;20036;-66
2023/08/19 00:24:32;;;;;;;11.82;8.82;;;;;;;29.66;51.69;100910.47;5036601;28;20053;-66
2023/08/19 00:26:59;;;;;;;7.40;5.75;;;;;;;29.66;52.08;100922.34;5036435;28;20104;-66
2023/08/19 00:29:25;;;;;;;14.20;7.43;;;;;;;29.65;51.45;100912.38;5053163;28;20029;-66
2023/08/19 00:31:50;;;;;;;13.07;8.55;;;;;;;29.62;51.77;100914.84;5054533;28;20029;-66
2023/08/19 00:34:16;;;;;;;14.60;9.30;;;;;;;29.61;51.83;100919.50;5036444;28;20524;-66
2023/08/19 00:36:41;;;;;;;11.63;8.35;;;;;;;29.62;52.23;100920.34;5052768;28;20076;-66
2023/08/19 00:39:06;;;;;;;11.77;7.57;;;;;;;29.60;51.96;100917.84;5052952;28;20049;-66
2023/08/19 00:41:33;;;;;;;13.57;8.05;;;;;;;29.60;51.68;100917.84;5054079;28;20057;-67
2023/08/19 00:43:58;;;;;;;13.30;7.85;;;;;;;29.61;52.07;100914.00;5052977;28;20063;-66
2023/08/19 00:46:25;;;;;;;12.65;7.32;;;;;;;29.56;52.10;100910.31;5054069;28;20052;-66
2023/08/19 00:48:50;;;;;;;11.27;6.80;;;;;;;29.59;51.93;100926.38;5054119;28;20556;-66
2023/08/19 00:51:17;;;;;;;12.55;7.55;;;;;;;29.58;52.09;100924.69;5036244;28;20128;-66
2023/08/19 00:53:44;;;;;;;12.77;7.72;;;;;;;29.57;52.49;100917.50;5054312;28;20033;-66
2023/08/19 00:56:11;;;;;;;9.57;7.03;;;;;;;29.55;52.15;100920.50;5036491;28;20032;-66
2023/08/19 00:58:36;;;;;;;17.92;8.60;;;;;;;29.56;52.51;100921.34;5051806;28;20041;-66
2023/08/19 01:01:02;;;;;;;12.07;8.43;;;;;;;29.54;52.02;100923.53;5052587;28;20454;-66
2023/08/19 01:03:28;;;;;;;12.65;7.88;;;;;;;29.54;52.11;100918.84;5053803;28;20037;-66
2023/08/19 01:06:10;;;;;;;12.57;7.90;;;;;;;29.56;52.53;100924.13;5053537;28;20048;-66
2023/08/19 01:08:42;;;;;;;12.13;7.50;;;;;;;29.54;52.40;100923.53;5052241;28;20073;-66
2023/08/19 01:11:14;;;;;;;9.07;7.55;;;;;;;29.55;52.20;100919.69;5052187;28;20029;-66
2023/08/19 01:14:04;;;;;;;12.23;7.53;;;;;;;29.55;52.43;100925.19;5053559;28;20040;-66
2023/08/19 01:16:30;;;;;;;12.63;7.97;;;;;;;29.54;52.38;100918.03;5035640;28;20044;-66
2023/08/19 01:18:56;;;;;;;13.20;8.15;;;;;;;29.55;52.02;100915.00;5052225;28;20412;-66
2023/08/19 01:21:22;;;;;;;11.13;8.35;;;;;;;29.57;52.43;100917.50;5053323;28;20044;-66
2023/08/19 01:23:49;;;;;;;12.45;8.45;;;;;;;29.55;52.09;100919.69;5053538;28;20032;-66
2023/08/19 01:26:16;;;;;;;15.90;8.18;;;;;;;29.57;52.29;100911.97;5035020;28;20569;-66
2023/08/19 01:28:41;;;;;;;8.82;7.28;;;;;;;29.57;52.76;100911.97;5052114;28;20086;-66
2023/08/19 01:31:07;;;;;;;11.10;8.10;;;;;;;29.55;52.75;100908.63;5051913;28;20021;-68
2023/08/19 01:33:33;;;;;;;23.45;8.77;;;;;;;29.56;52.69;100913.06;5051842;28;20037;-66
2023/08/19 01:36:06;;;;;;;11.57;7.10;;;;;;;29.57;52.13;100909.19;5035115;28;20052;-66
2023/08/19 01:38:44;;;;;;;12.45;7.40;;;;;;;29.53;53.05;100900.63;5035170;28;20037;-66
2023/08/19 01:41:10;;;;;;;13.40;7.40;;;;;;;29.57;52.44;100906.44;5051549;28;20041;-66
2023/08/19 01:43:36;;;;;;;11.27;7.55;;;;;;;29.56;52.84;100896.50;5052100;28;20040;-66
2023/08/19 01:46:01;;;;;;;13.40;6.82;;;;;;;29.57;52.80;100898.16;5051996;28;20025;-66
2023/08/19 01:48:27;;;;;;;13.23;7.95;;;;;;;29.56;52.76;100894.59;5051845;28;20369;-66
2023/08/19 01:50:52;;;;;;;13.00;7.93;;;;;;;29.56;52.69;100896.50;5052800;28;20028;-67
2023/08/19 01:53:17;;;;;;;12.98;7.18;;;;;;;29.56;52.75;100893.75;5052712;28;20393;-66
2023/08/19 01:55:43;;;;;;;9.07;6.28;;;;;;;29.52;52.97;100885.13;5053082;28;20028;-66
2023/08/19 01:58:09;;;;;;;10.98;6.55;;;;;;;29.52;52.56;100882.38;5051730;28;20045;-66
2023/08/19 02:00:36;;;;;;;10.52;6.90;;;;;;;29.51;53.06;100885.38;5051324;28;20017;-66
2023/08/19 02:03:02;;;;;;;8.13;6.40;;;;;;;29.53;52.36;100877.69;5051768;28;20013;-66
2023/08/19 02:05:27;;;;;;;8.63;6.65;;;;;;;29.53;52.68;100877.69;5051453;28;20025;-66
2023/08/19 02:07:52;;;;;;;9.43;6.55;;;;;;;29.52;52.52;100876.00;5053848;28;20025;-66
2023/08/19 02:10:18;;;;;;;13.50;6.78;;;;;;;29.50;52.46;100873.50;5051949;28;20071;-66
2023/08/19 02:12:43;;;;;;;14.88;6.53;;;;;;;29.51;52.47;100871.59;5034789;28;20028;-66
2023/08/19 02:15:08;;;;;;;9.23;6.60;;;;;;;29.49;52.26;100865.44;5052592;28;20017;-65
2023/08/19 02:17:34;;;;;;;7.50;5.80;;;;;;;29.51;52.31;100874.34;5052781;28;20021;-66
2023/08/19 02:19:59;;;;;;;9.00;6.35;;;;;;;29.49;52.61;100870.97;5050142;28;20116;-66
2023/08/19 02:22:24;;;;;;;12.07;6.60;;;;;;;29.47;52.44;100862.97;5052528;28;20028;-66
2023/08/19 02:24:50;;;;;;;8.85;5.60;;;;;;;29.45;52.99;100859.63;5051216;28;20100;-66
2023/08/19 02:27:16;;;;;;;11.23;6.15;;;;;;;29.43;53.08;100862.63;5052517;28;20480;-66
2023/08/19 02:29:41;;;;;;;9.52;6.63;;;;;;;29.40;52.61;100857.59;5050209;28;20435;-66
2023/08/19 02:32:07;;;;;;;10.65;6.03;;;;;;;29.40;52.66;100852.06;5051107;28;20021;-66
2023/08/19 02:34:33;;;;;;;9.65;5.20;;;;;;;29.40;52.41;100857.59;5051494;28;20028;-66
2023/08/19 02:36:59;;;;;;;12.50;5.85;;;;;;;29.39;52.29;100861.47;5034559;28;20063;-66
2023/08/19 02:39:24;;;;;;;12.45;6.20;;;;;;;29.40;52.52;100857.59;5051002;28;20381;-66
2023/08/19 02:41:49;;;;;;;8.18;6.05;;;;;;;29.40;52.82;100859.53;5052945;28;20032;-66
2023/08/19 02:44:15;;;;;;;9.80;6.13;;;;;;;29.40;52.82;100851.25;5052364;28;20071;-67
2023/08/19 02:46:40;;;;;;;12.80;6.53;;;;;;;29.39;52.69;100844.06;5051375;28;20043;-66
2023/08/19 02:49:05;;;;;;;8.95;5.75;;;;;;;29.38;52.71;100851.50;5051981;28;20024;-67
2023/08/19 02:51:31;;;;;;;15.82;5.25;;;;;;;29.39;52.39;100844.91;5034306;28;20028;-66
2023/08/19 02:53:57;;;;;;;7.97;5.95;;;;;;;29.40;52.77;100845.72;5051044;28;20112;-67
2023/08/19 02:56:23;;;;;;;12.93;5.97;;;;;;;29.38;52.33;100848.75;5052379;28;20537;-67
2023/08/19 02:58:48;;;;;;;9.27;5.80;;;;;;;29.37;52.71;100847.06;5052204;28;20029;-66
2023/08/19 03:01:13;;;;;;;10.30;5.78;;;;;;;29.38;52.66;100848.75;5034352;28;20064;-66
2023/08/19 03:03:39;;;;;;;9.88;5.55;;;;;;;29.38;52.46;100848.75;5050934;28;20488;-66
2023/08/19 03:06:04;;;;;;;10.38;5.90;;;;;;;29.38;52.74;100851.50;5050765;28;20064;-66
2023/08/19 03:08:30;;;;;;;7.00;5.40;;;;;;;29.37;52.99;100847.06;5051194;28;20040;-67
2023/08/19 03:10:55;;;;;;;9.45;6.15;;;;;;;29.39;52.49;100852.34;5052829;28;20421;-66
2023/08/19 03:13:20;;;;;;;10.60;5.70;;;;;;;29.40;52.47;100852.06;5034218;28;20109;-67
2023/08/19 03:15:46;;;;;;;9.55;5.63;;;;;;;29.41;52.94;100845.47;5050995;28;20029;-66
2023/08/19 03:18:14;;;;;;;6.72;5.22;;;;;;;29.40;52.73;100841.03;5050933;28;20033;-67
2023/08/19 03:20:40;;;;;;;10.95;4.63;;;;;;;29.41;52.94;100845.47;5050883;28;20036;-67
2023/08/19 03:23:05;;;;;;;9.43;5.60;;;;;;;29.41;52.69;100836.34;5053924;28;20091;-66
2023/08/19 03:25:30;;;;;;;8.10;5.10;;;;;;;29.40;52.82;100829.16;5055677;28;20122;-66
2023/08/19 03:27:56;;;;;;;7.75;5.25;;;;;;;29.38;52.56;100832.19;5056243;28;20044;-66
2023/08/19 03:30:21;;;;;;;5.78;5.15;;;;;;;29.39;52.66;100839.38;5054351;28;20044;-66
2023/08/19 03:32:47;;;;;;;9.85;5.97;;;;;;;29.40;52.05;100845.72;5053836;28;20488;-66
2023/08/19 03:35:12;;;;;;;8.43;5.57;;;;;;;29.40;52.88;100846.56;5054218;28;20119;-65
2023/08/19 03:37:38;;;;;;;8.85;5.75;;;;;;;29.41;52.87;100848.25;5053851;28;20044;-66
2023/08/19 03:40:04;;;;;;;7.57;4.75;;;;;;;29.41;52.47;100850.16;5053898;28;20044;-65
2023/08/19 03:42:29;;;;;;;10.25;4.90;;;;;;;29.42;52.86;100849.94;5053948;28;20041;-67
2023/08/19 03:44:54;;;;;;;9.02;5.72;;;;;;;29.41;52.14;100845.47;5053984;28;20380;-66
2023/08/19 03:47:20;;;;;;;6.20;4.55;;;;;;;29.44;52.49;100858.78;5055460;28;20094;-66
2023/08/19 03:49:45;;;;;;;10.82;4.70;;;;;;;29.43;52.38;100851.56;5053885;28;20056;-66
2023/08/19 03:52:10;;;;;;;9.77;5.65;;;;;;;29.42;51.85;100849.09;5055145;28;20468;-66
2023/08/19 03:54:36;;;;;;;7.05;4.38;;;;;;;29.40;52.38;100860.38;5053603;28;20032;-66
2023/08/19 03:57:01;;;;;;;6.97;4.63;;;;;;;29.37;52.26;100855.34;5053770;28;20408;-66
2023/08/19 03:59:27;;;;;;;7.47;4.90;;;;;;;29.35;52.73;100848.41;5036989;28;20060;-66
2023/08/19 04:01:52;;;;;;;5.93;4.90;;;;;;;29.35;51.86;100864.97;5053968;28;20115;-66
2023/08/19 04:04:18;;;;;;;9.98;5.18;;;;;;;29.34;52.82;100860.56;5055092;28;20041;-66
2023/08/19 04:06:43;;;;;;;6.88;4.97;;;;;;;29.34;52.37;100864.13;5054219;28;20048;-66
2023/08/19 04:09:09;;;;;;;7.20;5.40;;;;;;;29.33;52.19;100856.94;5054675;28;20432;-66
2023/08/19 04:11:34;;;;;;;10.63;5.45;;;;;;;29.36;52.60;100867.50;5054424;28;20029;-66
2023/08/19 04:13:59;;;;;;;10.60;4.38;;;;;;;29.36;52.54;100861.13;5054843;28;20119;-65
2023/08/19 04:16:25;;;;;;;5.90;4.45;;;;;;;29.37;52.11;100869.16;5054424;28;20091;-66
2023/08/19 04:18:51;;;;;;;9.10;4.88;;;;;;;29.36;52.42;100861.97;5053214;28;20059;-67
2023/08/19 04:21:17;;;;;;;6.95;4.45;;;;;;;29.36;52.78;100861.13;5052109;28;20183;-66
2023/08/19 04:23:42;;;;;;;16.85;4.93;;;;;;;29.35;52.60;100867.72;5053075;28;20040;-66
2023/08/19 04:26:07;;;;;;;11.82;4.47;;;;;;;29.36;52.77;100867.50;5053244;28;20045;-66
2023/08/19 04:28:33;;;;;;;7.35;4.85;;;;;;;29.35;52.01;100854.75;5051971;28;20504;-66
2023/08/19 04:31:08;;;;;;;7.50;4.13;;;;;;;29.34;51.89;100858.59;5052836;28;20044;-66
2023/08/19 04:33:35;;;;;;;9.45;5.10;;;;;;;29.34;52.58;100864.13;5052716;28;20033;-66
2023/08/19 04:36:00;;;;;;;9.95;4.60;;;;;;;29.32;52.79;100866.31;5053085;28;20448;-66
2023/08/19 04:38:26;;;;;;;10.63;4.97;;;;;;;29.32;52.33;100871.81;5053067;28;20041;-66
2023/08/19 04:40:51;;;;;;;9.52;5.63;;;;;;;29.32;52.85;100871.81;5054293;28;20400;-66
2023/08/19 04:43:20;;;;;;;8.45;4.53;;;;;;;29.32;52.63;100869.06;5036343;28;20028;-66
2023/08/19 04:45:46;;;;;;;6.53;4.53;;;;;;;29.32;52.76;100871.81;5052693;28;20040;-66
2023/08/19 04:48:11;;;;;;;9.35;4.45;;;;;;;29.32;52.38;100877.34;5053227;28;20025;-66
2023/08/19 04:50:37;;;;;;;9.13;4.38;;;;;;;29.31;52.37;100883.94;5062056;28;20044;-66
2023/08/19 04:53:03;;;;;;;11.43;4.65;;;;;;;29.30;52.23;100874.00;5065211;28;20025;-66
2023/08/19 04:55:29;;;;;;;7.97;4.57;;;;;;;29.32;52.88;100876.50;5043419;28;20048;-68
2023/08/19 04:57:54;;;;;;;13.27;4.97;;;;;;;29.32;52.78;100882.88;5059593;28;20040;-68
2023/08/19 05:00:19;;;;;;;17.17;5.32;;;;;;;29.35;52.51;100871.31;5059406;28;20099;-67
2023/08/19 05:02:45;;;;;;;6.80;4.47;;;;;;;29.34;53.04;100875.16;5056028;28;20501;-68
2023/08/19 05:05:10;;;;;;;7.63;4.55;;;;;;;29.33;52.87;100870.75;5054758;28;20373;-68
2023/08/19 05:07:36;;;;;;;10.52;5.32;;;;;;;29.33;52.77;100887.31;5052590;28;20072;-67
2023/08/19 05:10:01;;;;;;;14.48;5.38;;;;;;;29.33;52.99;100883.72;5052711;28;20464;-68
2023/08/19 05:12:27;;;;;;;11.73;5.00;;;;;;;29.33;52.37;100889.22;5053835;28;20551;-67
2023/08/19 05:14:52;;;;;;;9.35;4.97;;;;;;;29.33;53.16;100887.31;5053727;28;20047;-67
2023/08/19 05:17:18;;;;;;;8.05;4.88;;;;;;;29.32;53.12;100882.88;5052393;28;20497;-68
2023/08/19 05:19:44;;;;;;;5.38;4.38;;;;;;;29.35;52.97;100898.94;5051167;28;20040;-67
2023/08/19 05:22:10;;;;;;;7.68;4.97;;;;;;;29.36;52.79;100891.50;5035629;28;20140;-67
2023/08/19 05:24:35;;;;;;;5.78;4.03;;;;;;;29.38;52.89;100892.91;5053621;28;20457;-68
2023/08/19 05:27:01;;;;;;;8.65;5.43;;;;;;;29.43;52.71;100889.38;5051927;28;20040;-68
2023/08/19 05:29:26;;;;;;;7.30;4.40;;;;;;;29.47;52.39;100892.50;5053184;28;20086;-68
2023/08/19 05:31:52;;;;;;;7.78;4.93;;;;;;;29.49;52.65;100893.06;5051890;28;20039;-67
2023/08/19 05:34:17;;;;;;;6.63;4.47;;;;;;;29.53;52.62;100894.25;5051921;28;20041;-66
2023/08/19 05:36:43;;;;;;;21.30;5.55;;;;;;;29.57;53.05;100896.25;5051766;28;20056;-66
2023/08/19 05:39:08;;;;;;;8.05;4.72;;;;;;;29.61;52.70;100902.09;5053232;28;20393;-66
2023/08/19 05:41:34;;;;;;;5.93;4.85;;;;;;;29.67;52.62;100912.16;5034915;28;20045;-66
2023/08/19 05:43:59;;;;;;;4.55;3.83;;;;;;;29.70;52.62;100906.97;5051198;28;20048;-67
2023/08/19 05:46:25;;;;;;;7.05;4.65;;;;;;;29.75;52.80;100908.94;5052016;28;20570;-67
2023/08/19 05:48:50;;;;;;;6.00;4.32;;;;;;;29.76;52.94;100910.63;5053041;28;20041;-67
2023/08/19 05:51:16;;;;;;;10.73;4.80;;;;;;;29.82;53.19;100909.63;5052845;28;20453;-67
2023/08/19 05:53:41;;;;;;;10.13;4.88;;;;;;;29.85;52.42;100909.13;5052654;28;20094;-67
2023/08/19 05:56:07;;;;;;;8.23;4.93;;;;;;;29.90;52.45;100914.75;5051666;28;20033;-66
2023/08/19 05:58:32;;;;;;;8.82;4.88;;;;;;;29.95;53.04;100914.81;5051407;28;20082;-67
2023/08/19 06:01:06;;;;;;;8.75;5.03;;;;;;;29.99;52.29;100915.97;5051340;28;20405;-67
2023/08/19 06:03:32;;;;;;;11.95;5.40;;;;;;;30.01;53.17;100917.38;5033171;28;20025;-67
2023/08/19 06:06:02;;;;;;;8.30;4.88;;;;;;;30.04;52.86;100913.25;5051533;28;20408;-67
2023/08/19 06:08:28;;;;;;;7.72;5.07;;;;;;;30.07;52.84;100915.53;5051406;28;20546;-67
2023/08/19 06:11:06;;;;;;;8.35;4.65;;;;;;;30.09;53.11;100910.59;5051462;28;20036;-66
2023/08/19 06:13:32;;;;;;;8.05;4.63;;;;;;;30.12;52.66;100918.38;5034839;28;20063;-67
2023/08/19 06:15:57;;;;;;;9.65;5.68;;;;;;;30.17;52.35;100914.84;5051306;28;20465;-66
2023/08/19 06:18:23;;;;;;;9.18;4.88;;;;;;;30.24;52.26;100921.84;5051241;28;20033;-67
2023/08/19 06:20:50;;;;;;;5.57;4.35;;;;;;;30.33;52.38;100923.06;5052559;28;20029;-67
2023/08/19 06:23:18;;;;;;;9.45;4.35;;;;;;;30.43;52.44;100917.69;5052693;28;20411;-67
2023/08/19 06:25:44;;;;;;;7.47;5.43;;;;;;;30.55;51.95;100915.63;5052623;28;20110;-67
2023/08/19 06:28:09;;;;;;;10.13;4.80;;;;;;;30.65;51.99;100914.94;5051423;28;20112;-67
2023/08/19 06:30:35;;;;;;;7.13;4.20;;;;;;;30.76;51.59;100921.41;5051094;28;20512;-67
2023/08/19 06:33:00;;;;;;;8.50;4.32;;;;;;;30.80;52.13;100917.00;5050791;28;20043;-67
2023/08/19 06:35:26;;;;;;;6.68;4.50;;;;;;;30.79;51.88;100909.81;5052310;28;20029;-67
2023/08/19 06:37:53;;;;;;;13.07;5.40;;;;;;;30.78;52.39;100913.69;5034623;28;20586;-68
2023/08/19 06:40:19;;;;;;;10.88;4.93;;;;;;;30.78;52.26;100913.69;5051276;28;20036;-67
2023/08/19 06:42:45;;;;;;;7.78;4.45;;;;;;;30.80;52.22;100928.06;5051542;28;20037;-67
2023/08/19 06:45:11;;;;;;;13.05;4.18;;;;;;;30.86;52.15;100929.81;5051064;28;20033;-67
2023/08/19 06:47:38;;;;;;;5.43;4.07;;;;;;;30.90;52.32;100926.28;5051216;28;20033;-66
2023/08/19 06:50:04;;;;;;;9.30;4.50;;;;;;;30.96;52.16;100933.53;5051168;28;20112;-65
2023/08/19 06:52:30;;;;;;;7.90;4.78;;;;;;;31.02;51.99;100937.19;5051165;28;20057;-65
2023/08/19 06:54:55;;;;;;;7.15;4.18;;;;;;;31.09;51.80;100943.38;5051059;28;20036;-68
2023/08/19 06:57:36;;;;;;;9.18;4.55;;;;;;;31.18;52.23;100941.81;5054642;28;20044;-69
2023/08/19 07:00:09;;;;;;;12.10;4.45;;;;;;;31.22;52.06;100937.41;5038200;28;20038;-68
2023/08/19 07:02:38;;;;;;;7.43;4.38;;;;;;;31.28;51.92;100947.44;5055906;28;20036;-68
2023/08/19 07:05:14;;;;;;;6.60;3.85;;;;;;;31.39;51.69;100946.44;5054894;28;20495;-69
2023/08/19 07:07:48;;;;;;;8.75;4.25;;;;;;;31.46;51.85;100965.63;5038040;28;20021;-69
2023/08/19 07:10:19;;;;;;;8.18;3.80;;;;;;;31.50;51.63;100956.53;5055171;28;20388;-68
2023/08/19 07:12:45;;;;;;;7.15;3.90;;;;;;;31.58;51.12;100957.97;5055322;28;20049;-69
2023/08/19 07:15:14;;;;;;;3.85;3.17;;;;;;;31.63;50.53;100961.63;5056626;28;20063;-69
2023/08/19 07:17:42;;;;;;;5.38;3.50;;;;;;;31.70;51.13;100970.56;5055003;28;20029;-69
2023/08/19 07:20:09;;;;;;;7.10;3.38;;;;;;;31.77;50.41;100972.28;5055002;28;20028;-69
2023/08/19 07:22:36;;;;;;;5.45;2.85;;;;;;;31.87;49.96;100972.34;5055272;28;20037;-68
2023/08/19 07:25:03;;;;;;;7.82;3.85;;;;;;;31.99;49.89;100981.31;5055190;28;20025;-68
2023/08/19 07:27:29;;;;;;;8.38;4.50;;;;;;;32.10;49.84;100989.47;5037935;28;20040;-68
2023/08/19 07:29:54;;;;;;;6.05;3.53;;;;;;;32.24;49.33;100982.34;5054368;28;20528;-69
2023/08/19 07:32:20;;;;;;;5.55;3.67;;;;;;;32.35;49.29;100980.44;5054252;28;20121;-68
2023/08/19 07:34:45;;;;;;;8.43;3.55;;;;;;;32.44;48.91;100981.59;5055413;28;20032;-68
2023/08/19 07:37:11;;;;;;;6.18;3.90;;;;;;;32.57;49.36;100983.91;5053881;28;20566;-68
2023/08/19 07:39:38;;;;;;;4.40;3.00;;;;;;;32.69;48.36;100986.47;5053944;28;20029;-68
2023/08/19 07:42:03;;;;;;;6.72;3.28;;;;;;;32.83;47.89;100988.44;5037736;28;20437;-68
2023/08/19 07:44:29;;;;;;;5.68;3.08;;;;;;;32.99;47.70;100994.91;5055690;28;20053;-68
2023/08/19 07:46:54;;;;;;;7.85;3.78;;;;;;;33.16;47.02;100989.16;5054250;28;20052;-71
2023/08/19 07:49:19;;;;;;;11.95;3.42;;;;;;;33.31;46.42;100984.44;5055568;28;20087;-68
2023/08/19 07:51:45;;;;;;;7.50;3.60;;;;;;;33.45;47.43;100995.84;5053877;28;20116;-68
2023/08/19 07:54:11;;;;;;;5.70;2.72;;;;;;;33.54;45.95;100983.06;5054015;28;20116;-67
2023/08/19 07:56:38;;;;;;;6.53;3.20;;;;;;;33.56;46.34;100985.59;5053213;28;20029;-63
2023/08/19 07:59:03;;;;;;;5.97;3.47;;;;;;;33.58;46.83;100998.13;5053679;28;20049;-63
2023/08/19 08:01:29;;;;;;;5.85;3.00;;;;;;;33.59;46.32;100988.66;5053890;28;20064;-63
2023/08/19 08:03:54;;;;;;;6.38;3.15;;;;;;;33.64;46.10;101004.53;5053598;28;20048;-63
2023/08/19 08:06:19;;;;;;;5.80;3.88;;;;;;;33.71;46.45;101000.34;5054573;28;20116;-63
2023/08/19 08:08:45;;;;;;;4.10;3.00;;;;;;;33.76;45.88;101014.25;5052884;28;20033;-63
2023/08/19 08:11:10;;;;;;;6.03;3.20;;;;;;;33.81;46.33;101010.63;5053397;28;20025;-63
2023/08/19 08:13:35;;;;;;;8.13;3.45;;;;;;;33.86;45.49;101011.47;5055279;28;20048;-63
2023/08/19 08:16:01;;;;;;;3.95;3.42;;;;;;;33.89;45.94;101013.66;5053705;28;20377;-63
2023/08/19 08:18:27;;;;;;;6.70;2.95;;;;;;;33.91;44.93;101011.47;5053624;28;20040;-63
2023/08/19 08:20:53;;;;;;;9.27;3.38;;;;;;;33.89;45.78;101013.66;5053637;28;20049;-63
2023/08/19 08:23:18;;;;;;;8.18;3.55;;;;;;;33.90;44.89;101012.56;5054168;28;20511;-63
2023/08/19 08:25:45;;;;;;;3.83;3.40;;;;;;;33.90;45.68;101009.78;5055856;28;20067;-63
2023/08/19 08:28:10;;;;;;;9.30;3.88;;;;;;;33.86;45.15;101017.03;5053995;28;20052;-63
2023/08/19 08:30:37;;;;;;;4.45;2.95;;;;;;;33.86;45.56;101014.25;5053304;28;20496;-62
2023/08/19 08:33:03;;;;;;;6.60;3.20;;;;;;;33.85;45.42;101029.25;5054423;28;20029;-63
2023/08/19 08:35:28;;;;;;;6.72;3.92;;;;;;;33.87;44.58;101032.59;5054728;28;20033;-63
2023/08/19 08:37:53;;;;;;;6.97;3.90;;;;;;;33.91;45.76;101039.28;5054378;28;20060;-62
2023/08/19 08:40:19;;;;;;;5.88;3.50;;;;;;;33.97;45.51;101046.50;5052902;28;20047;-62
2023/08/19 08:42:46;;;;;;;4.82;3.35;;;;;;;34.06;44.70;101034.81;5053290;28;20027;-63
2023/08/19 08:45:11;;;;;;;9.43;3.70;;;;;;;34.17;45.60;101042.06;5053013;28;20029;-63
2023/08/19 08:47:39;;;;;;;6.15;3.78;;;;;;;34.32;44.38;101039.25;5053084;28;20447;-63
2023/08/19 08:50:04;;;;;;;7.57;3.60;;;;;;;34.59;44.24;101044.50;5053096;28;20116;-63
2023/08/19 08:52:30;;;;;;;8.10;3.45;;;;;;;34.79;44.01;101042.47;5036531;28;20056;-63
2023/08/19 08:54:57;;;;;;;3.85;3.35;;;;;;;34.93;44.15;101056.63;5052885;28;20555;-63
2023/08/19 08:57:22;;;;;;;4.50;3.72;;;;;;;34.97;44.19;101068.88;5052731;28;20033;-63
2023/08/19 08:59:47;;;;;;;6.85;3.35;;;;;;;34.97;44.17;101068.88;5053820;28;20120;-65
2023/08/19 09:02:14;;;;;;;5.22;3.70;;;;;;;34.92;44.02;101078.09;5052735;28;20113;-63
2023/08/19 09:04:44;;;;;;;5.15;3.22;;;;;;;34.92;44.37;101080.03;5052540;28;20083;-63
2023/08/19 09:07:17;;;;;;;4.90;3.55;;;;;;;34.94;44.52;101081.41;5052389;28;20029;-63
2023/08/19 09:09:45;;;;;;;5.28;3.00;;;;;;;34.97;44.27;101096.72;5052299;28;20033;-63
2023/08/19 09:12:12;;;;;;;4.75;3.67;;;;;;;35.05;43.63;101098.91;5035630;28;20033;-63
2023/08/19 09:14:42;;;;;;;4.80;3.22;;;;;;;35.17;43.83;101098.63;5053614;28;20555;-63
2023/08/19 09:17:09;;;;;;;4.82;3.50;;;;;;;35.29;43.48;101104.69;5052588;28;20051;-63
2023/08/19 09:19:35;;;;;;;4.95;3.47;;;;;;;35.44;43.55;101107.38;5034726;28;20029;-63
2023/08/19 09:22:16;;;;;;;6.65;3.40;;;;;;;35.59;43.63;101116.53;5052164;28;20033;-63
2023/08/19 09:24:42;;;;;;;7.45;3.78;;;;;;;35.62;43.50;101112.34;5053597;28;20145;-63
2023/08/19 09:27:07;;;;;;;6.57;3.53;;;;;;;35.66;43.14;101116.19;5052075;28;20504;-63
2023/08/19 09:29:33;;;;;;;7.75;4.00;;;;;;;35.60;43.27;101115.41;5052038;28;20025;-63
2023/08/19 09:31:59;;;;;;;4.68;3.00;;;;;;;35.51;43.54;101119.88;5053312;28;20033;-63
2023/08/19 09:34:25;;;;;;;5.22;3.92;;;;;;;35.45;43.58;101134.16;5051981;28;20500;-63
2023/08/19 09:36:55;;;;;;;10.15;4.22;;;;;;;35.34;43.91;101135.31;5052853;28;20049;-63
2023/08/19 09:39:24;;;;;;;8.13;3.55;;;;;;;35.24;43.99;101135.34;5053118;28;20036;-63
2023/08/19 09:41:49;;;;;;;6.22;2.90;;;;;;;35.11;43.75;101141.53;5051617;28;20033;-63
2023/08/19 09:44:15;;;;;;;6.93;3.88;;;;;;;35.03;43.96;101145.72;5051386;28;20044;-62
2023/08/19 09:46:42;;;;;;;8.35;3.83;;;;;;;34.93;43.78;101138.22;5051792;28;20116;-63
2023/08/19 09:49:09;;;;;;;6.80;3.33;;;;;;;34.85;44.70;101155.50;5051798;28;20489;-63
2023/08/19 09:51:34;;;;;;;9.30;3.97;;;;;;;34.78;44.70;101152.19;5052789;28;20033;-63
2023/08/19 09:54:10;;;;;;;8.32;4.00;;;;;;;34.71;44.84;101154.44;5051325;28;20558;-63
2023/08/19 09:56:35;;;;;;;8.88;4.07;;;;;;;34.64;44.54;101153.91;5036515;28;20041;-63
2023/08/19 09:59:01;;;;;;;8.23;4.10;;;;;;;34.57;45.11;101153.34;5050778;28;20073;-63
2023/08/19 10:01:27;;;;;;;7.32;4.32;;;;;;;34.52;45.49;101175.59;5058962;28;20469;-63
2023/08/19 10:03:53;;;;;;;6.60;3.55;;;;;;;34.42;45.18;101167.25;5052936;28;20108;-63
2023/08/19 10:06:26;;;;;;;7.35;4.15;;;;;;;34.37;45.57;101181.97;5052848;28;20105;-63
2023/08/19 10:09:05;;;;;;;12.75;4.15;;;;;;;34.34;45.48;101176.16;5035393;28;20033;-63
2023/08/19 10:11:31;;;;;;;7.00;4.38;;;;;;;34.29;44.99;101174.19;5052209;28;20033;-63
2023/08/19 10:14:00;;;;;;;7.35;3.70;;;;;;;34.21;45.39;101171.13;5036087;28;20029;-63
2023/08/19 10:16:27;;;;;;;8.80;4.47;;;;;;;34.13;45.61;101172.53;5010512;28;20042;-63
2023/08/19 10:18:52;;;;;;;8.85;4.68;;;;;;;34.02;46.03;101178.31;5016347;28;20035;-62
2023/08/19 10:21:21;;;;;;;8.25;4.38;;;;;;;33.88;46.70;101178.84;5010046;28;20117;-63
2023/08/19 10:23:48;;;;;;;9.90;4.78;;;;;;;33.78;46.52;101176.03;5031567;28;20495;-62
2023/08/19 10:26:15;;;;;;;9.27;4.55;;;;;;;33.68;46.40;101189.06;5031768;28;20091;-63
2023/08/19 10:28:40;;;;;;;6.78;4.68;;;;;;;33.60;46.41;101192.38;5031480;28;20029;-63
2023/08/19 10:31:13;;;;;;;12.57;5.00;;;;;;;33.55;47.15;101192.34;5034701;28;20037;-63
2023/08/19 10:33:46;;;;;;;10.10;5.10;;;;;;;33.51;46.19;101194.81;5035432;28;20385;-63
2023/08/19 10:36:15;;;;;;;10.38;4.38;;;;;;;33.51;47.27;101205.94;5035486;28;20523;-63
2023/08/19 10:38:59;;;;;;;8.13;4.65;;;;;;;33.55;46.26;101231.25;5036345;28;20049;-63
2023/08/19 10:41:36;;;;;;;15.10;5.25;;;;;;;33.48;47.12;101237.03;5035478;28;20068;-63
2023/08/19 10:44:12;;;;;;;11.98;5.47;;;;;;;33.48;46.80;101256.50;5036834;28;20030;-63
2023/08/19 10:46:38;;;;;;;6.65;4.90;;;;;;;33.47;47.66;101254.84;5036368;28;20564;-63
2023/08/19 10:49:08;;;;;;;6.75;4.60;;;;;;;33.45;46.91;101261.78;5036485;28;20030;-63
2023/08/19 10:51:48;;;;;;;7.47;4.70;;;;;;;33.42;47.56;101252.00;5032268;28;20362;-63
2023/08/19 10:54:15;;;;;;;9.10;4.88;;;;;;;33.42;47.85;101252.00;5036460;28;20137;-63
2023/08/19 10:56:52;;;;;;;8.13;4.93;;;;;;;33.45;47.39;101256.22;5027831;28;20111;-63
2023/08/19 10:59:18;;;;;;;6.82;4.95;;;;;;;33.49;47.12;101260.13;5036372;28;20057;-63
2023/08/19 11:01:45;;;;;;;9.07;5.68;;;;;;;33.47;47.89;101268.75;5034910;28;20456;-63
2023/08/19 11:04:11;;;;;;;8.35;5.07;;;;;;;33.44;48.12;101277.63;5036725;28;20034;-63
2023/08/19 11:06:38;;;;;;;6.93;4.78;;;;;;;33.42;47.42;101290.91;5035181;28;20091;-63
2023/08/19 11:09:03;;;;;;;6.50;4.50;;;;;;;33.40;48.26;101298.69;5036119;28;20034;-63
2023/08/19 11:11:31;;;;;;;7.70;5.25;;;;;;;33.40;48.26;101309.81;5036168;28;20025;-63
2023/08/19 11:13:56;;;;;;;11.77;5.10;;;;;;;33.39;48.81;101302.59;5017948;28;20148;-63
2023/08/19 11:16:26;;;;;;;8.00;4.97;;;;;;;33.40;47.89;101309.81;5035810;28;20536;-63
2023/08/19 11:18:53;;;;;;;9.50;5.45;;;;;;;33.43;48.71;101325.94;5034871;28;20021;-63